Time;durP1;ratioP1;P1;durP2;ratioP2;P2;SDS_P1;SDS_P2;PMS_P1;PMS_P2;Temp;Humidity;BMP_temperature;BMP_pressure;BME280_temperature;BME280_humidity;BME280_pressure;Samples;Min_cycle;Max_cycle;Signal;HPM_P1;HPM_P2
2023/05/23 00:02:57;;;;;;;17.00;10.85;;;;;;;;;;6284069;28;20041;-58
2023/05/23 00:05:58;;;;;;;32.78;12.02;;;;;;;;;;6284346;28;20530;-60
2023/05/23 00:08:58;;;;;;;20.92;10.35;;;;;;;;;;6285180;28;20045;-60
2023/05/23 00:11:59;;;;;;;22.33;11.63;;;;;;;;;;6282733;28;20045;-59
2023/05/23 00:15:00;;;;;;;18.67;10.65;;;;;;;;;;6284727;28;20091;-60
2023/05/23 00:18:00;;;;;;;16.08;10.00;;;;;;;;;;6284094;28;20493;-59
2023/05/23 00:21:02;;;;;;;20.95;11.23;;;;;;;;;;6283818;28;20044;-60
2023/05/23 00:24:03;;;;;;;19.30;11.20;;;;;;;;;;6284879;28;20122;-59
2023/05/23 00:27:04;;;;;;;22.35;11.15;;;;;;;;;;6283402;28;20713;-60
2023/05/23 00:30:06;;;;;;;23.40;11.03;;;;;;;;;;6283607;28;20414;-59
2023/05/23 00:33:06;;;;;;;22.67;11.52;;;;;;;;;;6283927;28;20049;-60
2023/05/23 00:36:07;;;;;;;16.77;10.27;;;;;;;;;;6285248;28;20163;-59
2023/05/23 00:39:08;;;;;;;20.37;10.93;;;;;;;;;;6285203;28;20040;-59
2023/05/23 00:42:09;;;;;;;22.77;10.80;;;;;;;;;;6284670;28;20080;-60
2023/05/23 00:45:11;;;;;;;20.60;10.93;;;;;;;;;;6287215;28;20056;-58
2023/05/23 00:48:12;;;;;;;19.33;11.05;;;;;;;;;;6288906;28;20050;-59
2023/05/23 00:51:12;;;;;;;17.88;10.73;;;;;;;;;;6283372;28;20761;-60
2023/05/23 00:54:15;;;;;;;19.40;11.30;;;;;;;;;;6282103;28;20043;-59
2023/05/23 00:57:16;;;;;;;20.80;10.68;;;;;;;;;;6282693;28;20517;-58
2023/05/23 01:00:18;;;;;;;22.25;10.95;;;;;;;;;;6284615;28;20044;-60
2023/05/23 01:03:19;;;;;;;20.48;12.02;;;;;;;;;;6282773;28;20078;-60
2023/05/23 01:06:19;;;;;;;18.02;11.30;;;;;;;;;;6285724;28;20402;-59
2023/05/23 01:09:21;;;;;;;22.33;11.15;;;;;;;;;;6288093;28;20040;-60
2023/05/23 01:12:37;;;;;;;21.55;12.40;;;;;;;;;;6284674;28;20475;-61
2023/05/23 01:15:56;;;;;;;19.45;10.82;;;;;;;;;;6287880;28;20053;-59
2023/05/23 01:19:23;;;;;;;20.65;10.82;;;;;;;;;;6284987;28;20044;-59
2023/05/23 01:22:49;;;;;;;17.65;11.43;;;;;;;;;;6284709;28;20098;-60
2023/05/23 01:26:37;;;;;;;20.25;11.63;;;;;;;;;;6280977;28;20056;-60
2023/05/23 01:29:45;;;;;;;21.20;11.45;;;;;;;;;;6252103;28;20045;-58
2023/05/23 01:32:51;;;;;;;16.83;10.68;;;;;;;;;;6254924;28;20045;-60
2023/05/23 01:35:51;;;;;;;23.83;11.40;;;;;;;;;;6284024;28;20082;-58
2023/05/23 01:38:52;;;;;;;18.10;10.85;;;;;;;;;;6281812;28;20469;-56
2023/05/23 01:41:53;;;;;;;18.35;10.10;;;;;;;;;;6282249;28;20510;-54
2023/05/23 01:44:58;;;;;;;21.15;10.93;;;;;;;;;;6284948;28;20048;-55
2023/05/23 01:48:00;;;;;;;20.08;10.90;;;;;;;;;;6282083;28;20072;-56
2023/05/23 01:51:02;;;;;;;18.67;10.73;;;;;;;;;;6283852;28;20101;-54
2023/05/23 01:54:02;;;;;;;20.08;10.98;;;;;;;;;;6283689;28;20044;-56
2023/05/23 01:57:04;;;;;;;17.75;10.15;;;;;;;;;;6283009;28;20110;-56
2023/05/23 02:00:06;;;;;;;20.08;10.48;;;;;;;;;;6282249;28;20048;-55
2023/05/23 02:03:07;;;;;;;18.33;10.43;;;;;;;;;;6288686;28;20125;-55
2023/05/23 02:06:07;;;;;;;17.02;9.95;;;;;;;;;;6286279;28;20056;-57
2023/05/23 02:09:08;;;;;;;19.35;9.85;;;;;;;;;;6282088;28;20050;-55
2023/05/23 02:12:09;;;;;;;19.00;11.23;;;;;;;;;;6282685;28;20440;-56
2023/05/23 02:15:10;;;;;;;18.25;10.68;;;;;;;;;;6284070;28;20090;-56
2023/05/23 02:18:10;;;;;;;18.65;10.07;;;;;;;;;;6281201;28;20043;-56
2023/05/23 02:21:12;;;;;;;21.65;10.52;;;;;;;;;;6280334;28;20048;-56
2023/05/23 02:24:12;;;;;;;19.92;10.40;;;;;;;;;;6283067;28;20055;-56
2023/05/23 02:27:13;;;;;;;19.80;10.65;;;;;;;;;;6283561;28;20072;-55
2023/05/23 02:30:13;;;;;;;18.63;10.50;;;;;;;;;;6283630;28;20558;-55
2023/05/23 02:33:15;;;;;;;19.27;11.38;;;;;;;;;;6283370;28;20037;-56
2023/05/23 02:36:15;;;;;;;21.45;11.07;;;;;;;;;;6284222;28;20058;-56
2023/05/23 02:39:16;;;;;;;19.30;9.90;;;;;;;;;;6285497;28;20464;-56
2023/05/23 02:42:17;;;;;;;18.35;10.50;;;;;;;;;;6282601;28;20045;-55
2023/05/23 02:45:18;;;;;;;18.50;11.00;;;;;;;;;;6285541;28;20501;-54
2023/05/23 02:48:19;;;;;;;21.05;10.25;;;;;;;;;;6285224;28;20407;-56
2023/05/23 02:51:20;;;;;;;;;;;;;;;;;;6288614;28;20055;-55
2023/05/23 02:54:20;;;;;;;19.95;10.73;;;;;;;;;;6286291;28;20303;-55
2023/05/23 02:57:21;;;;;;;20.95;10.95;;;;;;;;;;6285000;28;20164;-57
2023/05/23 03:00:22;;;;;;;21.48;11.02;;;;;;;;;;6285907;28;20040;-58
2023/05/23 03:03:22;;;;;;;21.08;10.00;;;;;;;;;;6287504;28;20044;-59
2023/05/23 03:06:23;;;;;;;21.13;11.13;;;;;;;;;;6286662;28;20406;-56
2023/05/23 03:09:23;;;;;;;20.55;10.90;;;;;;;;;;6285442;28;20140;-55
2023/05/23 03:12:24;;;;;;;20.33;10.77;;;;;;;;;;6287152;28;20044;-58
2023/05/23 03:15:25;;;;;;;17.05;9.65;;;;;;;;;;6288132;28;20767;-55
2023/05/23 03:18:25;;;;;;;18.17;9.98;;;;;;;;;;6286586;28;20045;-57
2023/05/23 03:21:26;;;;;;;19.35;10.30;;;;;;;;;;6285849;28;20052;-55
2023/05/23 03:24:27;;;;;;;21.30;10.32;;;;;;;;;;6287885;28;20060;-57
2023/05/23 03:27:27;;;;;;;18.83;9.77;;;;;;;;;;6287453;28;20048;-56
2023/05/23 03:30:28;;;;;;;15.82;9.48;;;;;;;;;;6285703;28;20045;-58
2023/05/23 03:33:28;;;;;;;20.23;10.50;;;;;;;;;;6287995;28;20139;-57
2023/05/23 03:36:32;;;;;;;19.23;9.93;;;;;;;;;;6286203;28;20491;-57
2023/05/23 03:39:32;;;;;;;25.55;11.25;;;;;;;;;;6283307;28;20044;-58
2023/05/23 03:42:33;;;;;;;16.55;10.15;;;;;;;;;;6289562;28;20098;-56
2023/05/23 03:45:34;;;;;;;18.58;10.18;;;;;;;;;;6286206;28;20067;-57
2023/05/23 03:48:34;;;;;;;20.63;10.05;;;;;;;;;;6283860;28;20048;-58
2023/05/23 03:51:35;;;;;;;20.08;11.52;;;;;;;;;;6283530;28;20072;-58
2023/05/23 03:54:36;;;;;;;17.15;9.77;;;;;;;;;;6290193;28;20060;-58
2023/05/23 03:57:36;;;;;;;18.65;10.55;;;;;;;;;;6286471;28;20045;-54
2023/05/23 04:00:37;;;;;;;17.70;9.65;;;;;;;;;;6284969;28;20048;-56
2023/05/23 04:03:37;;;;;;;20.10;9.75;;;;;;;;;;6288100;28;20048;-55
2023/05/23 04:06:38;;;;;;;20.05;10.18;;;;;;;;;;6284475;28;20110;-55
2023/05/23 04:09:39;;;;;;;23.58;10.30;;;;;;;;;;6282731;28;20722;-56
2023/05/23 04:12:40;;;;;;;17.48;10.82;;;;;;;;;;6286326;28;20388;-55
2023/05/23 04:15:41;;;;;;;16.23;9.50;;;;;;;;;;6287183;28;20040;-57
2023/05/23 04:18:42;;;;;;;16.48;10.18;;;;;;;;;;6284403;28;20041;-62
2023/05/23 04:21:43;;;;;;;15.68;10.00;;;;;;;;;;6284838;28;20053;-61
2023/05/23 04:24:43;;;;;;;17.48;10.35;;;;;;;;;;6288155;28;20052;-61
2023/05/23 04:27:44;;;;;;;16.80;10.35;;;;;;;;;;6287220;28;20487;-61
2023/05/23 04:30:44;;;;;;;21.08;10.27;;;;;;;;;;6284469;28;20045;-60
2023/05/23 04:33:45;;;;;;;21.27;10.65;;;;;;;;;;6289840;28;20408;-59
2023/05/23 04:36:45;;;;;;;19.45;10.25;;;;;;;;;;6293710;28;20052;-59
2023/05/23 04:39:47;;;;;;;20.58;11.23;;;;;;;;;;6287326;28;20121;-60
2023/05/23 04:42:48;;;;;;;21.87;10.57;;;;;;;;;;6285841;28;20055;-58
2023/05/23 04:45:49;;;;;;;19.33;10.95;;;;;;;;;;6284874;28;20052;-58
2023/05/23 04:48:49;;;;;;;21.75;11.70;;;;;;;;;;6282271;28;20060;-59
2023/05/23 04:51:51;;;;;;;19.65;11.00;;;;;;;;;;6284647;28;20041;-61
2023/05/23 04:54:52;;;;;;;20.05;11.80;;;;;;;;;;6288267;28;20052;-55
2023/05/23 04:57:53;;;;;;;25.38;11.27;;;;;;;;;;6284470;28;20053;-62
2023/05/23 05:00:54;;;;;;;22.30;12.38;;;;;;;;;;6287048;28;21572;-58
2023/05/23 05:03:54;;;;;;;27.38;11.80;;;;;;;;;;6288562;28;20052;-57
2023/05/23 05:06:55;;;;;;;21.52;11.77;;;;;;;;;;6283930;28;20044;-59
2023/05/23 05:09:56;;;;;;;22.08;11.52;;;;;;;;;;6285306;28;20052;-61
2023/05/23 05:12:56;;;;;;;26.50;11.75;;;;;;;;;;6284054;28;20403;-60
2023/05/23 05:15:57;;;;;;;20.08;11.07;;;;;;;;;;6283447;28;20571;-60
2023/05/23 05:18:58;;;;;;;21.75;11.20;;;;;;;;;;6283386;28;20055;-60
2023/05/23 05:21:59;;;;;;;20.40;10.77;;;;;;;;;;6282616;28;20564;-62
2023/05/23 05:25:00;;;;;;;19.38;10.80;;;;;;;;;;6283124;28;20117;-58
2023/05/23 05:28:05;;;;;;;19.75;11.00;;;;;;;;;;6283200;28;20062;-60
2023/05/23 05:31:05;;;;;;;21.45;11.43;;;;;;;;;;6280499;28;20044;-60
2023/05/23 05:34:06;;;;;;;23.42;11.50;;;;;;;;;;6289440;28;20052;-60
2023/05/23 05:37:07;;;;;;;23.13;11.52;;;;;;;;;;6285687;28;20040;-61
2023/05/23 05:40:08;;;;;;;21.45;12.13;;;;;;;;;;6282185;28;20151;-59
2023/05/23 05:43:09;;;;;;;21.77;11.35;;;;;;;;;;6281896;28;20445;-60
2023/05/23 05:46:10;;;;;;;19.35;11.73;;;;;;;;;;6283494;28;20052;-62
2023/05/23 05:49:10;;;;;;;23.55;11.27;;;;;;;;;;6282981;28;20743;-59
2023/05/23 05:52:11;;;;;;;23.17;11.93;;;;;;;;;;6282319;28;20507;-60
2023/05/23 05:55:12;;;;;;;16.30;10.60;;;;;;;;;;6284089;28;20055;-60
2023/05/23 05:58:12;;;;;;;23.05;11.45;;;;;;;;;;6281787;28;20048;-63
2023/05/23 06:01:13;;;;;;;26.17;12.25;;;;;;;;;;6283073;28;20106;-60
2023/05/23 06:04:14;;;;;;;18.80;11.15;;;;;;;;;;6281187;28;20063;-60
2023/05/23 06:07:14;;;;;;;19.35;11.30;;;;;;;;;;6283111;28;20048;-60
2023/05/23 06:10:15;;;;;;;22.10;11.80;;;;;;;;;;6281321;28;20075;-59
2023/05/23 06:13:16;;;;;;;21.55;11.68;;;;;;;;;;6281027;28;20044;-57
2023/05/23 06:16:17;;;;;;;29.97;12.50;;;;;;;;;;6280112;28;20052;-60
2023/05/23 06:19:17;;;;;;;21.40;12.48;;;;;;;;;;6279221;28;20056;-61
2023/05/23 06:22:18;;;;;;;20.92;12.10;;;;;;;;;;6281903;28;20106;-59
2023/05/23 06:25:18;;;;;;;20.88;11.85;;;;;;;;;;6281950;28;20057;-61
2023/05/23 06:28:19;;;;;;;21.52;12.48;;;;;;;;;;6279949;28;20052;-61
2023/05/23 06:31:20;;;;;;;21.15;12.15;;;;;;;;;;6281739;28;20151;-60
2023/05/23 06:34:20;;;;;;;20.05;12.73;;;;;;;;;;6285587;28;20140;-60
2023/05/23 06:37:21;;;;;;;22.75;11.73;;;;;;;;;;6289157;28;20040;-61
2023/05/23 06:40:21;;;;;;;20.38;12.30;;;;;;;;;;6283256;28;20067;-61
2023/05/23 06:43:22;;;;;;;20.35;11.93;;;;;;;;;;6289702;28;20048;-60
2023/05/23 06:46:23;;;;;;;21.42;11.88;;;;;;;;;;6288331;28;20079;-60
2023/05/23 06:49:24;;;;;;;16.75;11.57;;;;;;;;;;6280383;28;20407;-60
2023/05/23 06:52:25;;;;;;;20.80;12.55;;;;;;;;;;6286727;28;20048;-59
2023/05/23 06:55:26;;;;;;;22.23;12.13;;;;;;;;;;6287348;28;20067;-60
2023/05/23 06:58:27;;;;;;;19.23;12.25;;;;;;;;;;6281416;28;20146;-61
2023/05/23 07:01:27;;;;;;;25.47;12.40;;;;;;;;;;6285016;28;20467;-61
2023/05/23 07:04:28;;;;;;;22.08;12.60;;;;;;;;;;6284134;28;20055;-60
2023/05/23 07:07:28;;;;;;;20.10;12.40;;;;;;;;;;6285080;28;20056;-61
2023/05/23 07:10:29;;;;;;;22.77;12.65;;;;;;;;;;6285043;28;20056;-59
2023/05/23 07:13:29;;;;;;;17.98;12.30;;;;;;;;;;6283013;28;20607;-60
2023/05/23 07:16:30;;;;;;;20.73;12.63;;;;;;;;;;6285048;28;20060;-60
2023/05/23 07:19:30;;;;;;;17.67;12.15;;;;;;;;;;6280906;28;20055;-60
2023/05/23 07:22:31;;;;;;;20.27;12.40;;;;;;;;;;6284263;28;20136;-60
2023/05/23 07:25:32;;;;;;;19.02;12.52;;;;;;;;;;6284544;28;20091;-59
2023/05/23 07:28:33;;;;;;;21.63;12.97;;;;;;;;;;6283195;28;20048;-61
2023/05/23 07:31:33;;;;;;;21.05;12.52;;;;;;;;;;6284088;28;20049;-60
2023/05/23 07:34:34;;;;;;;21.43;12.43;;;;;;;;;;6287090;28;20524;-59
2023/05/23 07:37:34;;;;;;;19.63;12.27;;;;;;;;;;6289095;28;20097;-60
2023/05/23 07:40:37;;;;;;;20.50;12.07;;;;;;;;;;6289358;28;20135;-62
2023/05/23 07:43:38;;;;;;;18.77;11.80;;;;;;;;;;6284529;28;20060;-60
2023/05/23 07:46:38;;;;;;;22.23;12.47;;;;;;;;;;6293685;28;20063;-60
2023/05/23 07:49:39;;;;;;;19.37;12.40;;;;;;;;;;6288774;28;20484;-60
2023/05/23 07:52:40;;;;;;;18.47;11.83;;;;;;;;;;6285380;28;20137;-60
2023/05/23 07:55:40;;;;;;;19.87;11.97;;;;;;;;;;6283246;28;20044;-59
2023/05/23 07:58:41;;;;;;;23.47;11.80;;;;;;;;;;6286018;28;20587;-61
2023/05/23 08:01:43;;;;;;;24.80;12.30;;;;;;;;;;6285995;28;20048;-61
2023/05/23 08:04:45;;;;;;;23.95;11.68;;;;;;;;;;6286680;28;20041;-60
2023/05/23 08:07:45;;;;;;;23.00;12.48;;;;;;;;;;6285863;28;20051;-61
2023/05/23 08:10:46;;;;;;;18.97;11.73;;;;;;;;;;6282181;28;20084;-61
2023/05/23 08:13:47;;;;;;;20.70;11.73;;;;;;;;;;6285846;28;20537;-59
2023/05/23 08:16:47;;;;;;;19.23;11.20;;;;;;;;;;6284353;28;20178;-61
2023/05/23 08:19:48;;;;;;;21.70;11.27;;;;;;;;;;6280732;28;20086;-59
2023/05/23 08:22:49;;;;;;;18.13;12.00;;;;;;;;;;6283353;28;20066;-61
2023/05/23 08:25:50;;;;;;;16.07;10.43;;;;;;;;;;6285423;28;20561;-61
2023/05/23 08:28:51;;;;;;;17.95;10.32;;;;;;;;;;6283930;28;20401;-61
2023/05/23 08:31:52;;;;;;;18.60;10.40;;;;;;;;;;6283637;28;20323;-62
2023/05/23 08:34:53;;;;;;;15.87;10.73;;;;;;;;;;6285133;28;20298;-61
2023/05/23 08:37:54;;;;;;;19.87;10.53;;;;;;;;;;6282862;28;20402;-61
2023/05/23 08:40:58;;;;;;;16.98;11.07;;;;;;;;;;6282471;28;20399;-62
2023/05/23 08:43:58;;;;;;;19.92;10.07;;;;;;;;;;6281523;28;20151;-62
2023/05/23 08:47:04;;;;;;;17.00;11.07;;;;;;;;;;6281211;28;20239;-59
2023/05/23 08:50:11;;;;;;;18.17;10.13;;;;;;;;;;6282056;28;20150;-62
2023/05/23 08:53:19;;;;;;;17.10;9.60;;;;;;;;;;6288161;28;20127;-62
2023/05/23 08:56:19;;;;;;;15.32;9.95;;;;;;;;;;6283821;28;20506;-62
2023/05/23 08:59:21;;;;;;;16.60;10.67;;;;;;;;;;6279179;28;20049;-62
2023/05/23 09:02:21;;;;;;;17.42;10.02;;;;;;;;;;6280206;28;20044;-62
2023/05/23 09:05:22;;;;;;;14.30;9.30;;;;;;;;;;6281515;28;20135;-60
2023/05/23 09:08:25;;;;;;;16.13;9.43;;;;;;;;;;6279849;28;20131;-62
2023/05/23 09:11:26;;;;;;;16.20;8.60;;;;;;;;;;6281532;28;20059;-61
2023/05/23 09:14:29;;;;;;;15.80;9.43;;;;;;;;;;6282595;28;20064;-62
2023/05/23 09:17:32;;;;;;;14.93;9.45;;;;;;;;;;6285406;28;20056;-62
2023/05/23 09:20:32;;;;;;;14.38;9.48;;;;;;;;;;6280948;28;20044;-61
2023/05/23 09:23:38;;;;;;;14.97;9.27;;;;;;;;;;6280580;28;20534;-62
2023/05/23 09:26:38;;;;;;;15.15;9.45;;;;;;;;;;6283042;28;20131;-62
2023/05/23 09:29:39;;;;;;;16.98;9.48;;;;;;;;;;6280674;28;20055;-60
2023/05/23 09:32:40;;;;;;;14.63;9.07;;;;;;;;;;6281360;28;20495;-59
2023/05/23 09:35:45;;;;;;;16.95;9.00;;;;;;;;;;6282131;28;20055;-61
2023/05/23 09:38:47;;;;;;;15.57;9.20;;;;;;;;;;6283843;28;20078;-62
2023/05/23 09:41:48;;;;;;;12.52;8.55;;;;;;;;;;6281649;28;20135;-62
2023/05/23 09:44:49;;;;;;;13.90;8.63;;;;;;;;;;6287243;28;20102;-62
2023/05/23 09:47:51;;;;;;;13.18;8.77;;;;;;;;;;6287827;28;20048;-61
2023/05/23 09:50:52;;;;;;;;;;;;;;;;;;6282477;28;20037;-60
2023/05/23 09:53:52;;;;;;;15.73;9.38;;;;;;;;;;6282115;28;19944;-59
2023/05/23 09:56:55;;;;;;;13.47;8.43;;;;;;;;;;6282702;28;20454;-60
2023/05/23 09:59:59;;;;;;;13.63;8.13;;;;;;;;;;6281694;28;20472;-60
2023/05/23 10:03:12;;;;;;;17.13;8.10;;;;;;;;;;6278583;28;20427;-60
2023/05/23 10:06:43;;;;;;;13.02;8.48;;;;;;;;;;6279359;28;20143;-60
2023/05/23 10:09:55;;;;;;;11.98;8.45;;;;;;;;;;6281950;28;20060;-60
2023/05/23 10:12:58;;;;;;;15.38;7.70;;;;;;;;;;6281828;28;20036;-60
2023/05/23 10:16:05;;;;;;;12.45;7.72;;;;;;;;;;6281706;28;20052;-59
2023/05/23 10:19:16;;;;;;;11.77;7.22;;;;;;;;;;6279914;28;20048;-61
2023/05/23 10:22:18;;;;;;;10.98;7.07;;;;;;;;;;6283028;28;20044;-60
2023/05/23 10:25:20;;;;;;;12.93;7.25;;;;;;;;;;6280381;28;20609;-60
2023/05/23 10:28:23;;;;;;;10.25;7.30;;;;;;;;;;6279633;28;20074;-59
2023/05/23 10:31:24;;;;;;;12.70;7.63;;;;;;;;;;6279788;28;20044;-60
2023/05/23 10:34:30;;;;;;;12.00;7.60;;;;;;;;;;6280373;28;20063;-60
2023/05/23 10:37:38;;;;;;;11.90;7.53;;;;;;;;;;6284106;28;20142;-60
2023/05/23 10:40:49;;;;;;;9.52;6.97;;;;;;;;;;6282414;28;20071;-59
2023/05/23 10:44:19;;;;;;;13.00;7.45;;;;;;;;;;6281947;28;20040;-60
2023/05/23 10:47:27;;;;;;;13.38;7.82;;;;;;;;;;6273272;28;20048;-60
2023/05/23 10:50:33;;;;;;;11.30;7.20;;;;;;;;;;6279068;28;20550;-60
2023/05/23 10:53:36;;;;;;;11.45;7.70;;;;;;;;;;6282112;28;20049;-60
2023/05/23 10:56:37;;;;;;;14.50;7.80;;;;;;;;;;6280687;28;20059;-60
2023/05/23 10:59:38;;;;;;;13.30;7.87;;;;;;;;;;6279346;28;20044;-60
2023/05/23 11:02:46;;;;;;;11.93;7.55;;;;;;;;;;6282264;28;20048;-60
2023/05/23 11:05:52;;;;;;;12.90;7.80;;;;;;;;;;6282282;28;20040;-60
2023/05/23 11:09:01;;;;;;;12.88;7.90;;;;;;;;;;6280389;28;20406;-60
2023/05/23 11:12:04;;;;;;;12.80;7.93;;;;;;;;;;6278000;28;20410;-59
2023/05/23 11:15:25;;;;;;;12.88;7.57;;;;;;;;;;6282449;28;20132;-61
2023/05/23 11:18:26;;;;;;;12.20;7.40;;;;;;;;;;6284508;28;20083;-60
2023/05/23 11:21:28;;;;;;;14.60;7.90;;;;;;;;;;6284075;28;20067;-60
2023/05/23 11:24:54;;;;;;;14.57;7.50;;;;;;;;;;6284484;28;20407;-59
2023/05/23 11:27:55;;;;;;;15.45;7.93;;;;;;;;;;6283092;28;20491;-59
2023/05/23 11:30:56;;;;;;;12.63;8.10;;;;;;;;;;6284898;28;20051;-59
2023/05/23 11:33:56;;;;;;;12.40;8.20;;;;;;;;;;6292279;28;20048;-61
2023/05/23 11:36:57;;;;;;;12.17;7.53;;;;;;;;;;6287832;28;20128;-60
2023/05/23 11:39:59;;;;;;;13.13;8.17;;;;;;;;;;6283443;28;20037;-60
2023/05/23 11:43:01;;;;;;;12.32;7.78;;;;;;;;;;6291186;28;20044;-61
2023/05/23 11:46:08;;;;;;;11.18;7.95;;;;;;;;;;6285431;28;20521;-60
2023/05/23 11:49:10;;;;;;;12.30;7.80;;;;;;;;;;6283227;28;20105;-60
2023/05/23 11:52:10;;;;;;;;;;;;;;;;;;6285592;28;20049;-60
2023/05/23 11:55:11;;;;;;;14.53;8.30;;;;;;;;;;6283773;28;20294;-61
2023/05/23 11:58:12;;;;;;;11.60;8.70;;;;;;;;;;6284052;28;20133;-60
2023/05/23 12:01:12;;;;;;;12.10;8.27;;;;;;;;;;6285822;28;20048;-61
2023/05/23 12:04:13;;;;;;;13.82;8.55;;;;;;;;;;6284728;28;20044;-60
2023/05/23 12:07:18;;;;;;;13.23;9.23;;;;;;;;;;6284952;28;20049;-62
2023/05/23 12:10:21;;;;;;;14.18;8.40;;;;;;;;;;6283220;28;20052;-60
2023/05/23 12:13:28;;;;;;;11.77;8.02;;;;;;;;;;6283038;28;20534;-61
2023/05/23 12:16:29;;;;;;;14.65;8.52;;;;;;;;;;6283484;28;20049;-60
2023/05/23 12:19:30;;;;;;;13.47;8.63;;;;;;;;;;6287143;28;20497;-61
2023/05/23 12:22:31;;;;;;;15.07;8.30;;;;;;;;;;6282871;28;20045;-60
2023/05/23 12:25:43;;;;;;;14.10;8.80;;;;;;;;;;6286905;28;20398;-62
2023/05/23 12:28:44;;;;;;;11.30;8.10;;;;;;;;;;6284152;28;20060;-60
2023/05/23 12:31:47;;;;;;;14.17;8.73;;;;;;;;;;6284565;28;20051;-62
2023/05/23 12:34:48;;;;;;;16.73;8.75;;;;;;;;;;6282530;28;20787;-60
2023/05/23 12:37:48;;;;;;;23.97;10.03;;;;;;;;;;6285255;28;20041;-63
2023/05/23 12:41:18;;;;;;;21.70;9.63;;;;;;;;;;6284654;28;20049;-61
2023/05/23 12:44:18;;;;;;;18.23;10.13;;;;;;;;;;6281330;28;20071;-61
2023/05/23 12:47:19;;;;;;;21.67;10.70;;;;;;;;;;6280298;28;20523;-61
2023/05/23 12:50:19;;;;;;;25.80;11.23;;;;;;;;;;6285586;28;20044;-62
2023/05/23 12:53:21;;;;;;;22.90;11.20;;;;;;;;;;6284055;28;20040;-61
2023/05/23 12:56:21;;;;;;;21.23;11.90;;;;;;;;;;6281657;28;20652;-60
2023/05/23 12:59:22;;;;;;;22.13;11.63;;;;;;;;;;6283484;28;20309;-61
2023/05/23 13:02:23;;;;;;;20.30;11.60;;;;;;;;;;6283182;28;20049;-63
2023/05/23 13:05:23;;;;;;;32.97;13.43;;;;;;;;;;6285642;28;20083;-61
2023/05/23 13:08:26;;;;;;;32.10;13.80;;;;;;;;;;6284580;28;20120;-59
2023/05/23 13:11:26;;;;;;;19.67;11.43;;;;;;;;;;6283937;28;20155;-61
2023/05/23 13:14:27;;;;;;;16.90;10.80;;;;;;;;;;6284964;28;20062;-62
2023/05/23 13:17:28;;;;;;;22.67;11.73;;;;;;;;;;6289619;28;20132;-61
2023/05/23 13:20:29;;;;;;;21.00;11.47;;;;;;;;;;6271559;28;21016;-59
2023/05/23 13:23:30;;;;;;;16.45;10.68;;;;;;;;;;6291986;28;20135;-58
2023/05/23 13:26:30;;;;;;;19.33;10.53;;;;;;;;;;6272265;28;20063;-61
2023/05/23 13:29:32;;;;;;;14.93;10.53;;;;;;;;;;6276904;28;20848;-61
2023/05/23 13:32:32;;;;;;;15.38;9.20;;;;;;;;;;6274032;28;20056;-59
2023/05/23 13:35:33;;;;;;;12.63;8.97;;;;;;;;;;6271486;28;20807;-61
2023/05/23 13:38:34;;;;;;;16.48;9.23;;;;;;;;;;6279098;28;20474;-61
2023/05/23 13:41:35;;;;;;;13.00;9.43;;;;;;;;;;6279735;28;20052;-61
2023/05/23 13:44:35;;;;;;;16.77;9.53;;;;;;;;;;6279360;28;20747;-60
2023/05/23 13:47:36;;;;;;;16.00;9.30;;;;;;;;;;6275865;28;20055;-60
2023/05/23 14:02:30;;;;;;;13.55;9.02;;;;;;;;;;6321383;27;20410;-61
2023/05/23 14:05:31;;;;;;;12.55;8.32;;;;;;;;;;6316417;28;20044;-61
2023/05/23 14:08:31;;;;;;;14.27;9.10;;;;;;;;;;6319436;28;20130;-62
2023/05/23 14:11:32;;;;;;;13.37;9.00;;;;;;;;;;6320314;28;20046;-61
2023/05/23 14:14:33;;;;;;;13.30;8.90;;;;;;;;;;6324182;28;20031;-61
2023/05/23 14:17:34;;;;;;;14.07;9.03;;;;;;;;;;6328158;28;20501;-60
2023/05/23 14:20:34;;;;;;;12.97;8.13;;;;;;;;;;6322672;28;20040;-62
2023/05/23 14:23:35;;;;;;;14.10;7.85;;;;;;;;;;6329013;28;20516;-61
2023/05/23 14:26:36;;;;;;;11.87;8.10;;;;;;;;;;6324721;28;20037;-61
2023/05/23 14:29:37;;;;;;;13.40;7.80;;;;;;;;;;6328798;28;20394;-63
2023/05/23 14:32:38;;;;;;;11.15;8.30;;;;;;;;;;6334525;28;20160;-62
2023/05/23 14:35:38;;;;;;;12.90;8.03;;;;;;;;;;6325689;27;20685;-62
2023/05/23 14:38:40;;;;;;;12.33;7.87;;;;;;;;;;6326657;28;20044;-62
2023/05/23 14:41:41;;;;;;;15.05;7.88;;;;;;;;;;6328683;28;20143;-63
2023/05/23 14:44:41;;;;;;;12.63;8.00;;;;;;;;;;6313310;28;20437;-62
2023/05/23 14:47:42;;;;;;;20.10;8.80;;;;;;;;;;6313540;28;20128;-63
2023/05/23 14:50:43;;;;;;;11.13;7.47;;;;;;;;;;6312660;28;20040;-62
2023/05/23 14:53:43;;;;;;;15.63;8.60;;;;;;;;;;6312470;28;20051;-62
2023/05/23 14:56:44;;;;;;;16.63;9.07;;;;;;;;;;6315948;28;20051;-62
2023/05/23 14:59:45;;;;;;;14.47;9.00;;;;;;;;;;6314183;28;20087;-62
2023/05/23 15:02:46;;;;;;;12.60;8.50;;;;;;;;;;6310723;28;20047;-63
2023/05/23 15:05:47;;;;;;;13.93;8.98;;;;;;;;;;6315185;28;20047;-62
2023/05/23 15:08:47;;;;;;;15.30;9.37;;;;;;;;;;6322550;28;20422;-63
2023/05/23 15:11:48;;;;;;;16.77;9.37;;;;;;;;;;6308666;28;20071;-62
2023/05/23 15:14:48;;;;;;;16.67;9.70;;;;;;;;;;6310975;28;20036;-62
2023/05/23 15:17:49;;;;;;;16.10;10.60;;;;;;;;;;6319401;28;20486;-62
2023/05/23 15:20:50;;;;;;;17.27;10.13;;;;;;;;;;6317967;28;20044;-59
2023/05/23 15:23:51;;;;;;;15.10;11.50;;;;;;;;;;6323164;28;20056;-62
2023/05/23 15:26:52;;;;;;;15.63;11.13;;;;;;;;;;6311172;28;20428;-62
2023/05/23 15:29:53;;;;;;;19.85;13.23;;;;;;;;;;6316576;28;20067;-63
2023/05/23 15:32:53;;;;;;;18.67;12.63;;;;;;;;;;6315602;28;20105;-63
2023/05/23 15:35:54;;;;;;;18.70;12.70;;;;;;;;;;6312308;28;20147;-61
2023/05/23 15:38:55;;;;;;;18.73;12.33;;;;;;;;;;6304434;28;20465;-63
2023/05/23 15:41:55;;;;;;;17.57;12.07;;;;;;;;;;6305487;28;20048;-61
2023/05/23 15:44:56;;;;;;;20.93;12.43;;;;;;;;;;6304328;28;20040;-61
2023/05/23 15:47:57;;;;;;;19.80;13.03;;;;;;;;;;6305562;28;20047;-61
2023/05/23 15:50:58;;;;;;;18.60;13.03;;;;;;;;;;6305313;28;20059;-62
2023/05/23 15:53:58;;;;;;;17.23;13.33;;;;;;;;;;6305394;28;20469;-61
2023/05/23 15:56:59;;;;;;;22.23;12.63;;;;;;;;;;6304418;28;20060;-63
2023/05/23 16:00:00;;;;;;;22.27;12.53;;;;;;;;;;6302783;28;20083;-68
2023/05/23 16:03:00;;;;;;;21.97;12.60;;;;;;;;;;6304865;28;20055;-64
2023/05/23 16:06:01;;;;;;;19.70;12.27;;;;;;;;;;6303182;28;20052;-63
2023/05/23 16:09:02;;;;;;;18.00;11.00;;;;;;;;;;6303103;28;20048;-59
2023/05/23 16:12:03;;;;;;;18.13;11.00;;;;;;;;;;6305007;28;20145;-62
2023/05/23 16:15:04;;;;;;;17.60;10.53;;;;;;;;;;6299039;28;20311;-62
2023/05/23 16:18:05;;;;;;;18.27;10.90;;;;;;;;;;6301754;28;20160;-64
2023/05/23 16:21:05;;;;;;;18.83;10.57;;;;;;;;;;6302191;28;20056;-62
2023/05/23 16:24:06;;;;;;;14.43;11.07;;;;;;;;;;6304379;28;20093;-59
2023/05/23 16:27:07;;;;;;;16.87;10.37;;;;;;;;;;6302670;28;20060;-61
2023/05/23 16:30:08;;;;;;;17.80;10.87;;;;;;;;;;6302574;28;20054;-60
2023/05/23 16:33:09;;;;;;;17.27;9.95;;;;;;;;;;6305122;28;20091;-62
2023/05/23 16:36:10;;;;;;;15.33;10.50;;;;;;;;;;6300917;28;20083;-62
2023/05/23 16:39:10;;;;;;;21.27;14.67;;;;;;;;;;6302504;28;20124;-60
2023/05/23 16:42:11;;;;;;;19.13;13.63;;;;;;;;;;6299622;28;20540;-61
2023/05/23 16:45:12;;;;;;;235.67;193.13;;;;;;;;;;6295096;28;20044;-60
2023/05/23 16:48:12;;;;;;;14.27;10.13;;;;;;;;;;6290994;28;20125;-59
2023/05/23 16:51:13;;;;;;;21.70;15.13;;;;;;;;;;6294588;28;20040;-58
2023/05/23 16:54:14;;;;;;;40.73;27.27;;;;;;;;;;6295516;28;20039;-60
2023/05/23 16:57:15;;;;;;;43.30;28.70;;;;;;;;;;6293859;28;20312;-60
2023/05/23 17:00:16;;;;;;;15.03;9.90;;;;;;;;;;6292110;28;20059;-58
2023/05/23 17:03:17;;;;;;;20.83;13.17;;;;;;;;;;6291500;28;20387;-60
2023/05/23 17:06:18;;;;;;;29.83;18.88;;;;;;;;;;6290557;28;20449;-60
2023/05/23 17:09:21;;;;;;;12.90;9.30;;;;;;;;;;6289862;28;20052;-58
2023/05/23 17:12:22;;;;;;;14.95;10.18;;;;;;;;;;6291085;28;20047;-60
2023/05/23 17:15:23;;;;;;;14.00;8.90;;;;;;;;;;6293962;28;20541;-60
2023/05/23 17:18:24;;;;;;;20.05;10.15;;;;;;;;;;6294786;28;20539;-58
2023/05/23 17:21:25;;;;;;;13.67;8.77;;;;;;;;;;6282431;28;20044;-62
2023/05/23 17:24:26;;;;;;;12.93;9.63;;;;;;;;;;6294685;28;20055;-61
2023/05/23 17:27:27;;;;;;;15.33;9.63;;;;;;;;;;6287669;28;20048;-62
2023/05/23 17:30:28;;;;;;;16.70;10.10;;;;;;;;;;6289184;28;20054;-60
2023/05/23 17:33:29;;;;;;;15.83;10.00;;;;;;;;;;6299896;28;20040;-62
2023/05/23 17:36:30;;;;;;;16.70;11.53;;;;;;;;;;6299584;28;20051;-62
2023/05/23 17:39:31;;;;;;;14.38;11.38;;;;;;;;;;6297748;28;20750;-62
2023/05/23 17:42:32;;;;;;;18.87;11.53;;;;;;;;;;6301759;28;20130;-62
2023/05/23 17:45:32;;;;;;;19.00;11.40;;;;;;;;;;6287980;28;20449;-62
2023/05/23 17:48:33;;;;;;;17.25;12.00;;;;;;;;;;6301169;28;20533;-62
2023/05/23 17:51:35;;;;;;;18.23;12.47;;;;;;;;;;6301293;28;20425;-64
2023/05/23 17:54:36;;;;;;;21.05;12.23;;;;;;;;;;6300056;28;20670;-59
2023/05/23 17:57:37;;;;;;;20.80;12.67;;;;;;;;;;6302943;28;20052;-60
2023/05/23 18:00:38;;;;;;;18.87;12.47;;;;;;;;;;6300559;28;20060;-63